Aérodrome :
LOGIN :

Register | Disclaimer

   EN    FR    IT 

 

















- Airport Elevation : 512 ft
- IATA code : URO
- Download approach charts


LFOP - Rouen Vallée de Seine

CURRENT METAR :
  • 261200Z AUTO 20011KT 5000 -RADZ BR BKN004 OVC009 17/16 Q1011 TEMPO 2000 DZRA OVC007

EXPIRED METARs :
  • 261130Z AUTO 21010KT 3900 -RA BR SCT009 BKN015 BKN020 18/16 Q1012 TEMPO 2000 DZRA OVC007
  • 261100Z AUTO 21011KT 9999 -RA SCT024 BKN029 OVC038 19/15 Q1011 BECMG BKN012
  • 261030Z AUTO 22013KT 9999 -RA BKN029 BKN040 OVC049 20/13 Q1011 BECMG BKN012
  • 261000Z AUTO 18012KT 9999 SCT028 BKN041 BKN060 21/14 Q1011 TEMPO VRB02KT BECMG BKN012
  • 260930Z AUTO 19011KT 9999 BKN035 BKN045 OVC066 21/13 Q1012 BECMG BKN012

TAF TAF LFOP
Valid from the 26 at 12:00 until the 27 at 12:00 UTC


261100Z 2612/2712 20010KT 9999 BKN012
TEMPO 2613/2623 2000 DZRA OVC007
BECMG 2619/2621 27012KT
BECMG 2623/2702 SCT017
ATIS : +33 2 35 80 80 34
Met : +33 2 32 86 52 80
No reported NOTAMs for that airfield.





SOURCES & CREDITS :

   NOAA